Time;durP1;ratioP1;P1;durP2;ratioP2;P2;SDS_P1;SDS_P2;PMS_P1;PMS_P2;Temp;Humidity;BMP_temperature;BMP_pressure;BME280_temperature;BME280_humidity;BME280_pressure;Samples;Min_cycle;Max_cycle;Signal;HPM_P1;HPM_P2
2022/04/08 00:01:19;;;;;;;3.63;1.87;;;6.80;99.90;;;;;;5096752;28;20657;-47
2022/04/08 00:03:46;;;;;;;1.70;1.50;;;6.80;99.90;;;;;;5096489;28;20599;-46
2022/04/08 00:06:11;;;;;;;4.17;2.00;;;6.70;99.90;;;;;;5096341;28;20192;-47
2022/04/08 00:08:37;;;;;;;4.23;2.27;;;6.70;99.90;;;;;;5096675;28;20178;-48
2022/04/08 00:11:02;;;;;;;2.23;1.77;;;6.70;99.90;;;;;;5096196;28;20670;-47
2022/04/08 00:13:28;;;;;;;3.10;2.17;;;6.60;99.90;;;;;;5096318;28;20177;-46
2022/04/08 00:15:54;;;;;;;3.57;2.13;;;6.60;99.90;;;;;;5096212;28;20565;-47
2022/04/08 00:18:19;;;;;;;5.23;1.87;;;6.50;99.90;;;;;;5096481;28;20185;-48
2022/04/08 00:20:45;;;;;;;2.47;2.00;;;6.50;99.90;;;;;;5096077;28;20539;-46
2022/04/08 00:23:11;;;;;;;6.60;2.13;;;6.40;99.90;;;;;;5096151;28;20188;-47
2022/04/08 00:25:37;;;;;;;3.13;1.83;;;6.40;99.90;;;;;;5096606;28;20201;-49
2022/04/08 00:28:02;;;;;;;2.70;2.00;;;6.30;99.90;;;;;;5096258;28;20181;-48
2022/04/08 00:30:28;;;;;;;2.30;1.70;;;6.30;99.90;;;;;;5095963;28;20178;-47
2022/04/08 00:32:57;;;;;;;3.87;1.83;;;6.30;99.90;;;;;;5095929;28;20189;-41
2022/04/08 00:35:22;;;;;;;3.40;2.00;;;6.30;99.90;;;;;;5095479;28;20257;-43
2022/04/08 00:37:49;;;;;;;4.63;2.10;;;6.20;99.90;;;;;;5077710;28;20201;-42
2022/04/08 00:40:15;;;;;;;3.03;1.63;;;6.20;99.90;;;;;;5078380;28;20201;-42
2022/04/08 00:42:42;;;;;;;6.17;2.03;;;6.10;99.90;;;;;;5095790;28;20170;-41
2022/04/08 00:45:09;;;;;;;4.03;1.80;;;6.10;99.90;;;;;;5096026;28;20189;-42
2022/04/08 00:47:36;;;;;;;2.23;1.40;;;6.10;99.90;;;;;;5095637;28;20246;-44
2022/04/08 00:50:03;;;;;;;4.50;1.40;;;6.00;99.90;;;;;;5095842;28;20194;-43
2022/04/08 00:52:32;;;;;;;4.80;1.53;;;6.00;99.90;;;;;;5095521;28;20170;-42
2022/04/08 00:54:58;;;;;;;4.00;1.93;;;6.00;99.90;;;;;;5095627;28;20197;-42
2022/04/08 00:57:23;;;;;;;2.90;1.60;;;6.00;99.90;;;;;;5095452;28;20675;-42
2022/04/08 00:59:50;;;;;;;5.30;1.90;;;6.00;99.90;;;;;;5095828;28;20655;-42
2022/04/08 01:02:16;;;;;;;4.97;2.17;;;6.10;99.90;;;;;;5095388;28;20185;-44
2022/04/08 01:04:41;;;;;;;2.47;1.63;;;6.00;99.90;;;;;;5095344;28;20174;-42
2022/04/08 01:07:07;;;;;;;2.37;1.60;;;6.00;99.90;;;;;;5095525;28;20254;-42
2022/04/08 01:09:33;;;;;;;5.03;1.60;;;6.00;99.90;;;;;;5095120;28;20272;-43
2022/04/08 01:11:58;;;;;;;5.23;1.73;;;6.00;99.90;;;;;;5095225;28;20184;-42
2022/04/08 01:14:24;;;;;;;2.67;1.13;;;6.00;99.90;;;;;;5095226;28;20184;-42
2022/04/08 01:16:50;;;;;;;3.33;2.00;;;6.00;99.90;;;;;;5095136;28;20279;-43
2022/04/08 01:19:15;;;;;;;8.47;1.87;;;5.90;99.90;;;;;;5076862;28;20313;-43
2022/04/08 01:21:41;;;;;;;8.60;2.20;;;5.90;99.90;;;;;;5095000;28;20214;-43
2022/04/08 01:24:14;;;;;;;7.03;2.20;;;5.90;99.90;;;;;;5095076;28;20180;-42
2022/04/08 01:26:41;;;;;;;4.73;1.60;;;5.80;99.90;;;;;;5094876;28;20194;-45
2022/04/08 01:29:07;;;;;;;5.13;1.83;;;5.80;99.90;;;;;;5095433;28;20168;-43
2022/04/08 01:31:32;;;;;;;5.17;2.00;;;5.80;99.90;;;;;;5094904;28;20351;-44
2022/04/08 01:33:58;;;;;;;7.30;2.03;;;5.80;99.90;;;;;;5077394;28;20204;-42
2022/04/08 01:36:24;;;;;;;4.30;1.90;;;5.80;99.90;;;;;;5094641;28;20687;-42
2022/04/08 01:38:49;;;;;;;6.63;1.67;;;5.80;99.90;;;;;;5094675;28;20170;-42
2022/04/08 01:41:16;;;;;;;5.27;1.87;;;5.80;99.90;;;;;;5076483;28;20204;-42
2022/04/08 01:43:43;;;;;;;2.47;1.80;;;5.90;99.90;;;;;;5095232;28;20192;-43
2022/04/08 01:46:08;;;;;;;4.77;2.27;;;5.80;99.90;;;;;;5094272;28;20193;-44
2022/04/08 01:48:34;;;;;;;7.73;2.23;;;5.80;99.90;;;;;;5094437;28;20166;-44
2022/04/08 01:50:59;;;;;;;4.13;2.50;;;5.80;99.90;;;;;;5094568;28;20176;-42
2022/04/08 01:53:25;;;;;;;4.93;1.80;;;5.80;99.90;;;;;;5094423;28;20218;-44
2022/04/08 01:55:51;;;;;;;5.33;2.67;;;5.80;99.90;;;;;;5094572;28;20208;-43
2022/04/08 01:58:16;;;;;;;5.30;2.80;;;5.90;99.90;;;;;;5094302;28;20175;-42
2022/04/08 02:00:42;;;;;;;5.40;2.90;;;5.90;99.90;;;;;;5094428;28;20190;-42
2022/04/08 02:03:09;;;;;;;6.47;3.13;;;5.90;99.90;;;;;;5094178;28;20229;-43
2022/04/08 02:05:34;;;;;;;5.97;2.87;;;5.90;99.90;;;;;;5094673;28;20608;-45
2022/04/08 02:08:00;;;;;;;3.27;2.27;;;5.90;99.90;;;;;;5094104;28;20172;-43
2022/04/08 02:10:26;;;;;;;5.37;2.40;;;5.90;99.90;;;;;;5094016;28;20211;-43
2022/04/08 02:12:52;;;;;;;3.00;2.03;;;5.80;99.90;;;;;;5094074;28;20263;-43
2022/04/08 02:15:23;;;;;;;3.53;2.17;;;5.80;99.90;;;;;;5093853;28;20183;-43
2022/04/08 02:17:48;;;;;;;2.40;1.80;;;5.80;99.90;;;;;;5094285;28;20622;-43
2022/04/08 02:20:14;;;;;;;7.90;2.03;;;5.70;99.90;;;;;;5093755;28;20206;-43
2022/04/08 02:22:40;;;;;;;6.33;2.03;;;5.70;99.90;;;;;;5094331;28;20262;-43
2022/04/08 02:25:06;;;;;;;3.67;2.00;;;5.70;99.90;;;;;;5093819;28;20234;-44
2022/04/08 02:27:32;;;;;;;3.33;1.87;;;5.60;99.90;;;;;;5094014;28;20606;-43
2022/04/08 02:29:58;;;;;;;4.63;1.53;;;5.60;99.90;;;;;;5093996;28;20195;-43
2022/04/08 02:32:24;;;;;;;3.47;1.93;;;5.70;99.90;;;;;;5093732;28;20177;-42
2022/04/08 02:34:50;;;;;;;2.63;2.03;;;5.50;99.90;;;;;;5093904;28;20322;-42
2022/04/08 02:37:16;;;;;;;3.30;1.60;;;5.50;99.90;;;;;;5093822;28;20673;-44
2022/04/08 02:39:42;;;;;;;7.33;1.97;;;5.50;99.90;;;;;;5093481;28;20192;-43
2022/04/08 02:42:07;;;;;;;2.83;2.10;;;5.50;99.90;;;;;;5093653;28;20545;-43
2022/04/08 02:44:33;;;;;;;4.93;2.23;;;5.40;99.90;;;;;;5093837;28;20713;-42
2022/04/08 02:46:58;;;;;;;2.77;2.23;;;5.40;99.90;;;;;;5093535;28;20223;-44
2022/04/08 02:49:24;;;;;;;6.13;2.33;;;5.40;99.90;;;;;;5093984;28;20234;-44
2022/04/08 02:51:50;;;;;;;4.77;2.40;;;5.40;99.90;;;;;;5093498;28;20184;-45
2022/04/08 02:54:15;;;;;;;4.23;2.83;;;5.40;99.90;;;;;;5093436;28;20275;-43
2022/04/08 02:56:41;;;;;;;5.97;3.30;;;5.40;99.90;;;;;;5093339;28;20203;-43
2022/04/08 02:59:08;;;;;;;4.73;2.80;;;5.30;99.90;;;;;;5093309;28;20649;-42
2022/04/08 03:01:33;;;;;;;3.40;2.83;;;5.30;99.90;;;;;;5093693;28;20556;-42
2022/04/08 03:03:59;;;;;;;3.83;2.80;;;5.30;99.90;;;;;;5093583;28;20182;-45
2022/04/08 03:06:26;;;;;;;8.23;2.93;;;5.30;99.90;;;;;;5075099;28;20676;-44
2022/04/08 03:08:52;;;;;;;3.40;3.10;;;5.30;99.90;;;;;;5093434;28;20176;-44
2022/04/08 03:11:17;;;;;;;5.40;3.23;;;5.30;99.90;;;;;;5093137;28;20200;-45
2022/04/08 03:13:43;;;;;;;5.23;3.13;;;5.30;99.90;;;;;;5093231;28;20172;-44
2022/04/08 03:16:09;;;;;;;4.97;3.33;;;5.40;99.90;;;;;;5093138;28;20234;-43
2022/04/08 03:18:34;;;;;;;5.13;3.30;;;5.40;99.90;;;;;;5093491;28;20236;-42
2022/04/08 03:21:00;;;;;;;3.80;2.83;;;5.30;99.90;;;;;;5093362;28;20197;-44
2022/04/08 03:23:25;;;;;;;7.27;3.23;;;5.30;99.90;;;;;;5093127;28;20196;-44
2022/04/08 03:25:51;;;;;;;10.07;3.67;;;5.30;99.90;;;;;;5093113;28;20200;-41
2022/04/08 03:28:16;;;;;;;5.77;3.17;;;5.20;99.90;;;;;;5093417;28;20265;-43
2022/04/08 03:30:42;;;;;;;5.37;3.60;;;5.20;99.90;;;;;;5093303;28;20183;-43
2022/04/08 03:33:08;;;;;;;7.20;3.50;;;5.20;99.90;;;;;;5093125;28;20242;-41
2022/04/08 03:35:34;;;;;;;3.87;3.20;;;5.10;99.90;;;;;;5075345;28;20193;-42
2022/04/08 03:38:00;;;;;;;7.17;3.87;;;5.10;99.90;;;;;;5093241;28;20638;-44
2022/04/08 03:40:25;;;;;;;6.33;4.00;;;5.10;99.90;;;;;;5093527;28;20211;-43
2022/04/08 03:42:51;;;;;;;5.27;3.47;;;5.00;99.90;;;;;;5093504;28;20689;-42
2022/04/08 03:45:16;;;;;;;7.47;3.63;;;4.90;99.90;;;;;;5093048;28;20190;-41
2022/04/08 03:47:42;;;;;;;8.07;3.37;;;4.90;99.90;;;;;;5093982;28;20188;-42
2022/04/08 03:50:08;;;;;;;7.40;3.60;;;4.90;99.90;;;;;;5093365;28;20180;-44
2022/04/08 03:52:33;;;;;;;5.87;3.77;;;4.90;99.90;;;;;;5093567;28;20187;-42
2022/04/08 03:55:00;;;;;;;8.17;4.37;;;4.90;99.90;;;;;;5093079;28;20179;-44
2022/04/08 03:57:26;;;;;;;4.60;3.53;;;4.80;99.90;;;;;;5092952;28;20203;-43
2022/04/08 03:59:52;;;;;;;6.00;4.43;;;4.90;99.90;;;;;;5093092;28;20215;-43
2022/04/08 04:02:18;;;;;;;6.77;3.70;;;4.90;99.90;;;;;;5092846;28;20230;-43
2022/04/08 04:04:44;;;;;;;9.63;4.37;;;4.80;99.90;;;;;;5092983;28;20210;-44
2022/04/08 04:07:09;;;;;;;9.37;4.40;;;4.90;99.90;;;;;;5074999;28;20662;-42
2022/04/08 04:09:35;;;;;;;9.00;4.43;;;4.80;99.90;;;;;;5092779;28;20625;-43
2022/04/08 04:12:00;;;;;;;6.53;3.77;;;4.80;99.90;;;;;;5096609;28;20687;-44
2022/04/08 04:14:26;;;;;;;7.97;4.27;;;4.80;99.90;;;;;;5096644;28;20184;-43
2022/04/08 04:16:52;;;;;;;8.03;4.80;;;4.80;99.90;;;;;;5096505;28;20737;-44
2022/04/08 04:19:17;;;;;;;9.23;4.33;;;4.80;99.90;;;;;;5096419;28;20213;-43
2022/04/08 04:21:43;;;;;;;6.87;3.70;;;4.70;99.90;;;;;;5096406;28;20602;-42
2022/04/08 04:24:09;;;;;;;6.47;4.13;;;4.70;99.90;;;;;;5096119;28;20262;-42
2022/04/08 04:26:34;;;;;;;9.70;4.73;;;4.70;99.90;;;;;;5096058;28;20197;-44
2022/04/08 04:29:00;;;;;;;9.17;3.90;;;4.70;99.90;;;;;;5078361;28;20181;-44
2022/04/08 04:31:26;;;;;;;6.90;4.60;;;4.70;99.90;;;;;;5095944;28;20263;-42
2022/04/08 04:33:51;;;;;;;8.67;3.90;;;4.70;99.90;;;;;;5095945;28;20171;-43
2022/04/08 04:36:17;;;;;;;5.63;3.97;;;4.60;99.90;;;;;;5096070;28;20190;-43
2022/04/08 04:38:43;;;;;;;7.37;4.10;;;4.60;99.90;;;;;;5095991;28;20175;-44
2022/04/08 04:41:09;;;;;;;8.07;3.93;;;4.50;99.90;;;;;;5095765;28;20692;-44
2022/04/08 04:43:35;;;;;;;5.93;3.13;;;4.40;99.90;;;;;;5095674;28;20266;-43
2022/04/08 04:46:03;;;;;;;6.67;2.87;;;4.40;99.90;;;;;;5095729;28;20324;-43
2022/04/08 04:48:29;;;;;;;5.80;3.27;;;4.40;99.90;;;;;;5096053;28;20179;-44
2022/04/08 04:50:56;;;;;;;3.47;2.67;;;4.30;99.90;;;;;;5095891;28;20193;-43
2022/04/08 04:53:22;;;;;;;3.50;2.63;;;4.30;99.90;;;;;;5095836;28;20187;-44
2022/04/08 04:55:47;;;;;;;5.63;3.00;;;4.30;99.90;;;;;;5077319;28;20202;-44
2022/04/08 04:58:13;;;;;;;5.13;2.90;;;4.30;99.90;;;;;;5095528;28;20182;-42
2022/04/08 05:00:39;;;;;;;3.50;2.23;;;4.30;99.90;;;;;;5095419;28;20217;-44
2022/04/08 05:03:05;;;;;;;5.03;2.87;;;4.30;99.90;;;;;;5095682;28;20210;-43
2022/04/08 05:05:31;;;;;;;4.00;2.83;;;4.30;99.90;;;;;;5095463;28;20182;-43
2022/04/08 05:08:03;;;;;;;7.10;2.90;;;4.30;99.90;;;;;;5095372;28;20258;-42
2022/04/08 05:10:30;;;;;;;6.43;2.70;;;4.30;99.90;;;;;;5095018;28;20206;-44
2022/04/08 05:12:55;;;;;;;4.47;2.53;;;4.20;99.90;;;;;;5096318;28;20245;-44
2022/04/08 05:15:21;;;;;;;6.17;2.57;;;4.20;99.90;;;;;;5110977;22;20230;-40
2022/04/08 05:17:47;;;;;;;4.17;2.63;;;4.20;99.90;;;;;;5077601;28;20630;-38
2022/04/08 05:20:13;;;;;;;5.40;2.77;;;4.20;99.90;;;;;;5095262;28;20281;-39
2022/04/08 05:22:41;;;;;;;4.10;2.60;;;4.20;99.90;;;;;;5093985;28;20258;-38
2022/04/08 05:25:07;;;;;;;6.53;2.37;;;4.20;99.90;;;;;;5076765;28;20183;-39
2022/04/08 05:27:41;;;;;;;5.30;2.27;;;4.20;99.90;;;;;;5095079;28;20675;-40
2022/04/08 05:30:18;;;;;;;4.47;2.67;;;4.20;99.90;;;;;;5095146;28;20175;-41
2022/04/08 05:32:46;;;;;;;6.37;2.83;;;4.30;99.90;;;;;;5094644;28;20163;-42
2022/04/08 05:35:14;;;;;;;4.57;2.97;;;4.40;99.90;;;;;;5095072;28;20191;-42
2022/04/08 05:37:42;;;;;;;6.27;2.80;;;4.40;99.90;;;;;;5094653;28;20254;-41
2022/04/08 05:40:09;;;;;;;3.07;2.43;;;4.40;99.90;;;;;;5094446;28;20211;-41
2022/04/08 05:42:35;;;;;;;4.50;2.67;;;4.40;99.90;;;;;;5094639;28;20171;-42
2022/04/08 05:45:00;;;;;;;4.70;2.77;;;4.50;99.90;;;;;;5095354;28;20514;-42
2022/04/08 05:47:31;;;;;;;5.10;2.63;;;4.50;99.90;;;;;;5095005;28;20206;-42
2022/04/08 05:50:00;;;;;;;3.13;2.57;;;4.50;99.90;;;;;;5094957;28;20174;-42
2022/04/08 05:52:26;;;;;;;5.40;2.47;;;4.50;99.90;;;;;;5076290;28;20278;-39
2022/04/08 05:54:52;;;;;;;7.97;2.73;;;4.60;99.90;;;;;;5095001;28;20265;-41
2022/04/08 05:57:21;;;;;;;4.67;2.70;;;4.60;99.90;;;;;;5094350;28;20214;-41
2022/04/08 05:59:47;;;;;;;8.00;2.80;;;4.60;99.90;;;;;;5094232;28;20686;-41
2022/04/08 06:02:13;;;;;;;6.07;3.00;;;4.70;99.90;;;;;;5094187;28;20175;-41
2022/04/08 06:04:38;;;;;;;3.17;2.50;;;4.70;99.90;;;;;;5094173;28;20179;-41
2022/04/08 06:07:04;;;;;;;4.43;2.90;;;4.70;99.90;;;;;;5093970;28;20543;-41
2022/04/08 06:09:29;;;;;;;7.30;2.87;;;4.80;99.90;;;;;;5094082;28;20201;-41
2022/04/08 06:11:55;;;;;;;6.63;3.47;;;4.80;99.90;;;;;;5076012;28;20656;-41
2022/04/08 06:14:21;;;;;;;4.30;2.73;;;4.80;99.90;;;;;;5093894;28;20206;-41
2022/04/08 06:16:46;;;;;;;7.10;3.13;;;4.90;99.90;;;;;;5094308;28;20210;-40
2022/04/08 06:19:12;;;;;;;5.97;2.97;;;4.90;99.90;;;;;;5094120;28;20613;-41
2022/04/08 06:21:37;;;;;;;7.73;3.33;;;5.00;99.90;;;;;;5094212;28;20640;-40
2022/04/08 06:24:05;;;;;;;6.20;3.07;;;5.10;99.90;;;;;;5094165;28;20205;-41
2022/04/08 06:26:36;;;;;;;7.83;3.10;;;5.30;99.90;;;;;;5095417;28;20192;-40
2022/04/08 06:29:04;;;;;;;6.17;2.93;;;5.40;99.90;;;;;;5098398;28;20192;-42
2022/04/08 06:31:33;;;;;;;9.00;3.00;;;5.50;99.90;;;;;;5096278;28;20250;-41
2022/04/08 06:34:03;;;;;;;5.33;3.27;;;5.70;99.90;;;;;;5095739;28;20616;-41
2022/04/08 06:36:30;;;;;;;7.97;3.60;;;5.70;99.90;;;;;;5097394;28;20191;-45
2022/04/08 06:38:56;;;;;;;8.00;2.90;;;5.80;99.90;;;;;;5080944;28;20185;-45
2022/04/08 06:41:23;;;;;;;7.93;3.30;;;5.80;99.90;;;;;;5095208;28;20249;-44
2022/04/08 06:43:50;;;;;;;9.03;3.67;;;5.90;99.90;;;;;;5094712;28;20179;-43
2022/04/08 06:46:16;;;;;;;7.10;3.80;;;6.00;99.90;;;;;;5097891;28;20206;-41
2022/04/08 06:48:43;;;;;;;9.47;3.70;;;6.00;99.90;;;;;;5095812;28;20171;-41
2022/04/08 06:51:09;;;;;;;8.53;3.23;;;6.10;99.90;;;;;;5076099;28;20186;-44
2022/04/08 06:53:37;;;;;;;7.37;3.40;;;6.20;99.90;;;;;;5095811;28;20184;-46
2022/04/08 06:56:05;;;;;;;5.77;3.23;;;6.30;99.90;;;;;;5077144;28;20680;-44
2022/04/08 06:58:32;;;;;;;7.23;3.97;;;6.40;99.90;;;;;;5076022;28;20188;-45
2022/04/08 07:00:59;;;;;;;6.50;3.43;;;6.50;99.90;;;;;;5093802;28;20551;-45
2022/04/08 07:03:26;;;;;;;8.43;3.80;;;6.70;99.90;;;;;;5095798;28;20185;-41
2022/04/08 07:05:52;;;;;;;4.73;3.30;;;6.80;99.90;;;;;;5094660;28;20258;-41
2022/04/08 07:08:18;;;;;;;5.90;3.33;;;6.90;99.90;;;;;;5094989;28;20201;-41
2022/04/08 07:10:44;;;;;;;6.00;3.03;;;6.90;99.90;;;;;;5095685;28;20637;-41
2022/04/08 07:13:09;;;;;;;9.17;3.93;;;7.00;99.90;;;;;;5093656;28;20184;-41
2022/04/08 07:15:35;;;;;;;8.00;3.27;;;7.00;99.90;;;;;;5093244;28;20310;-43
2022/04/08 07:18:05;;;;;;;7.33;3.47;;;7.00;99.90;;;;;;5093286;28;20262;-42
2022/04/08 07:20:31;;;;;;;7.60;3.80;;;7.00;99.90;;;;;;5075153;28;20203;-43
2022/04/08 07:23:01;;;;;;;8.37;3.63;;;7.00;99.90;;;;;;5093426;28;20175;-40
2022/04/08 07:25:28;;;;;;;4.63;3.07;;;7.00;99.90;;;;;;5093515;28;20225;-41
2022/04/08 07:27:58;;;;;;;6.47;3.40;;;7.00;99.90;;;;;;5093323;28;20187;-44
2022/04/08 07:30:25;;;;;;;8.43;3.07;;;6.90;99.90;;;;;;5093280;28;20199;-42
2022/04/08 07:32:52;;;;;;;5.57;3.57;;;7.00;99.90;;;;;;5093276;28;20185;-41
2022/04/08 07:35:18;;;;;;;8.43;3.30;;;6.90;99.90;;;;;;5093107;28;20198;-41
2022/04/08 07:37:44;;;;;;;5.27;3.30;;;7.00;99.90;;;;;;5075573;28;20190;-41
2022/04/08 07:40:12;;;;;;;9.27;3.30;;;6.90;99.90;;;;;;5092916;28;20563;-43
2022/04/08 07:42:38;;;;;;;8.60;3.00;;;7.00;99.90;;;;;;5092933;28;20193;-43
2022/04/08 07:45:06;;;;;;;6.13;3.17;;;7.00;99.90;;;;;;5093892;28;20177;-40
2022/04/08 07:47:32;;;;;;;11.43;3.60;;;7.10;99.90;;;;;;5096757;28;20212;-43
2022/04/08 07:50:09;;;;;;;6.80;3.53;;;7.00;99.90;;;;;;5097042;28;20182;-42
2022/04/08 07:52:34;;;;;;;10.50;3.60;;;7.10;99.90;;;;;;5097165;28;20210;-43
2022/04/08 07:55:00;;;;;;;12.20;3.70;;;7.10;99.90;;;;;;5097163;28;20184;-42
2022/04/08 07:57:26;;;;;;;8.63;3.37;;;7.20;99.90;;;;;;5096750;28;20214;-41
2022/04/08 07:59:51;;;;;;;7.37;3.07;;;7.20;99.90;;;;;;5096571;28;20288;-40
2022/04/08 08:02:17;;;;;;;8.87;3.10;;;7.20;99.90;;;;;;5096611;28;20196;-41
2022/04/08 08:04:43;;;;;;;6.60;3.03;;;7.30;99.90;;;;;;5096524;28;20184;-40
2022/04/08 08:07:10;;;;;;;6.40;3.00;;;7.30;99.90;;;;;;5096421;28;20206;-41
2022/04/08 08:09:36;;;;;;;5.47;2.77;;;7.30;99.90;;;;;;5096379;28;20584;-42
2022/04/08 08:12:02;;;;;;;5.93;3.47;;;7.40;99.90;;;;;;5096876;28;20183;-42
2022/04/08 08:14:28;;;;;;;6.90;3.10;;;7.40;99.90;;;;;;5096311;28;20190;-42
2022/04/08 08:16:54;;;;;;;8.67;3.07;;;7.50;99.90;;;;;;5096676;28;20216;-43
2022/04/08 08:19:20;;;;;;;10.93;3.47;;;7.60;99.90;;;;;;5096914;28;20182;-43
2022/04/08 08:21:46;;;;;;;7.20;3.63;;;7.60;99.90;;;;;;5097536;28;20181;-40
2022/04/08 08:24:12;;;;;;;5.10;3.23;;;7.60;99.90;;;;;;5078979;28;20550;-42
2022/04/08 08:26:40;;;;;;;8.67;3.93;;;7.70;99.90;;;;;;5096421;28;20280;-41
2022/04/08 08:29:06;;;;;;;6.60;3.70;;;7.70;99.90;;;;;;5096132;28;20235;-41
2022/04/08 08:31:32;;;;;;;9.17;3.77;;;7.70;99.90;;;;;;5095937;28;20185;-40
2022/04/08 08:33:58;;;;;;;8.27;3.93;;;7.80;99.90;;;;;;5096080;28;20225;-40
2022/04/08 08:36:23;;;;;;;5.13;3.80;;;7.80;99.90;;;;;;5077666;28;20227;-41
2022/04/08 08:38:49;;;;;;;6.23;4.60;;;7.90;99.90;;;;;;5096021;28;20175;-41
2022/04/08 08:41:18;;;;;;;6.80;4.30;;;7.90;99.90;;;;;;5095977;28;20203;-40
2022/04/08 08:43:44;;;;;;;7.10;3.70;;;8.00;99.90;;;;;;5095947;28;20175;-39
2022/04/08 08:46:12;;;;;;;6.47;3.90;;;8.00;99.90;;;;;;5096021;28;20203;-40
2022/04/08 08:48:38;;;;;;;6.70;4.23;;;8.00;99.90;;;;;;5095644;28;20178;-41
2022/04/08 08:51:06;;;;;;;7.43;4.37;;;8.00;99.90;;;;;;5095591;28;20175;-42
2022/04/08 08:53:33;;;;;;;5.13;3.83;;;8.20;99.90;;;;;;5077225;28;20186;-41
2022/04/08 08:56:00;;;;;;;6.20;3.93;;;8.20;99.90;;;;;;5095448;28;20199;-40
2022/04/08 08:58:29;;;;;;;5.53;4.07;;;8.30;99.90;;;;;;5096101;28;20194;-40
2022/04/08 09:00:56;;;;;;;8.30;4.30;;;8.30;99.90;;;;;;5095649;28;20247;-41
2022/04/08 09:03:21;;;;;;;8.20;4.27;;;8.40;99.90;;;;;;5095720;28;20623;-39
2022/04/08 09:05:50;;;;;;;7.00;3.60;;;8.50;99.90;;;;;;5095532;28;20206;-41
2022/04/08 09:08:15;;;;;;;7.83;3.90;;;8.50;99.90;;;;;;5095578;28;20512;-43
2022/04/08 09:10:43;;;;;;;7.97;3.77;;;8.60;99.90;;;;;;5095397;28;20190;-38
2022/04/08 09:13:10;;;;;;;7.30;3.80;;;8.70;99.90;;;;;;5096801;28;20543;-46
2022/04/08 09:15:39;;;;;;;8.07;3.87;;;8.70;99.90;;;;;;5096390;28;20264;-46
2022/04/08 09:18:14;;;;;;;9.80;3.87;;;8.80;99.90;;;;;;5096941;28;20183;-44
2022/04/08 09:20:45;;;;;;;5.80;3.63;;;8.80;99.90;;;;;;5096686;28;20195;-45
2022/04/08 09:23:13;;;;;;;6.67;3.63;;;9.00;99.90;;;;;;5096751;28;20167;-45
2022/04/08 09:25:39;;;;;;;5.93;3.27;;;9.00;99.90;;;;;;5095977;28;20298;-41
2022/04/08 09:28:07;;;;;;;7.73;3.27;;;9.00;99.90;;;;;;5094894;28;20699;-40
2022/04/08 09:30:32;;;;;;;4.87;2.90;;;9.00;99.90;;;;;;5095105;28;20550;-40
2022/04/08 09:32:58;;;;;;;7.73;3.90;;;9.00;99.90;;;;;;5094970;28;20196;-40
2022/04/08 09:35:26;;;;;;;6.77;3.10;;;9.10;99.90;;;;;;5095039;28;20210;-39
2022/04/08 09:37:57;;;;;;;8.73;3.33;;;9.10;99.90;;;;;;5095021;28;20292;-43
2022/04/08 09:40:24;;;;;;;4.30;2.93;;;9.10;99.90;;;;;;5094931;28;20571;-40
2022/04/08 09:42:49;;;;;;;3.87;2.80;;;9.10;99.90;;;;;;5094938;28;20186;-41
2022/04/08 09:45:26;;;;;;;8.00;2.90;;;9.10;99.90;;;;;;5095088;28;20175;-41
2022/04/08 09:47:52;;;;;;;5.50;2.50;;;9.20;99.90;;;;;;5094779;28;20246;-41
2022/04/08 09:50:17;;;;;;;5.40;2.80;;;9.20;99.90;;;;;;5094352;28;20651;-40
2022/04/08 09:52:44;;;;;;;6.40;2.60;;;9.20;99.90;;;;;;5094707;28;20190;-42
2022/04/08 09:55:10;;;;;;;5.57;2.67;;;9.20;99.90;;;;;;5076368;28;20183;-42
2022/04/08 09:57:38;;;;;;;4.27;2.77;;;9.10;99.90;;;;;;5094310;28;20312;-41
2022/04/08 10:00:05;;;;;;;6.20;2.90;;;9.10;99.90;;;;;;5075736;28;20202;-41
2022/04/08 10:02:34;;;;;;;7.00;2.87;;;9.20;99.90;;;;;;5094532;28;20640;-42
2022/04/08 10:05:01;;;;;;;3.90;2.37;;;9.20;99.90;;;;;;5094139;28;20182;-45
2022/04/08 10:07:28;;;;;;;4.17;2.20;;;9.20;99.90;;;;;;5093756;28;20620;-45
2022/04/08 10:10:12;;;;;;;5.10;2.27;;;9.30;99.90;;;;;;5075930;28;20179;-45
2022/04/08 10:12:49;;;;;;;3.03;2.00;;;9.30;99.90;;;;;;5094125;28;20170;-43
2022/04/08 10:15:31;;;;;;;3.77;1.90;;;9.30;99.90;;;;;;5094036;28;20191;-46
2022/04/08 10:18:05;;;;;;;6.27;1.80;;;9.30;99.90;;;;;;5094077;28;20177;-45
2022/04/08 10:20:32;;;;;;;5.43;2.10;;;9.30;99.90;;;;;;5076542;28;20195;-46
2022/04/08 10:23:04;;;;;;;4.63;2.30;;;9.30;99.90;;;;;;5093798;28;20163;-45
2022/04/08 10:25:37;;;;;;;5.57;2.00;;;9.30;99.90;;;;;;5094890;28;20182;-44
2022/04/08 10:28:02;;;;;;;5.17;2.23;;;9.30;99.90;;;;;;5094439;28;20152;-46
2022/04/08 10:30:28;;;;;;;3.73;1.93;;;9.30;99.90;;;;;;5093989;28;20187;-46
2022/04/08 10:33:06;;;;;;;3.40;1.90;;;9.30;99.90;;;;;;5093794;28;20174;-46
2022/04/08 10:35:31;;;;;;;5.17;2.40;;;9.30;99.90;;;;;;5094032;28;20165;-45
2022/04/08 10:38:06;;;;;;;4.37;2.20;;;9.40;99.90;;;;;;5093723;28;20183;-44
2022/04/08 10:40:34;;;;;;;3.20;2.17;;;9.40;99.90;;;;;;5093789;28;20202;-46
2022/04/08 10:43:02;;;;;;;4.73;1.67;;;9.30;99.90;;;;;;5093745;28;20179;-46
2022/04/08 10:45:29;;;;;;;5.03;1.77;;;9.30;99.90;;;;;;5097297;28;20195;-41
2022/04/08 10:47:59;;;;;;;4.30;2.13;;;9.30;99.90;;;;;;5083061;28;20179;-41
2022/04/08 10:50:27;;;;;;;3.33;1.57;;;9.30;99.90;;;;;;5096374;28;20178;-48
2022/04/08 10:53:14;;;;;;;3.27;1.30;;;9.30;99.90;;;;;;5102009;28;20172;-45
2022/04/08 10:56:07;;;;;;;3.33;1.20;;;9.30;99.90;;;;;;5083045;28;20696;-42
2022/04/08 10:58:46;;;;;;;3.07;1.33;;;9.20;99.90;;;;;;5084871;28;20179;-41
2022/04/08 11:01:27;;;;;;;2.60;1.27;;;9.30;99.90;;;;;;5096949;28;20191;-41
2022/04/08 11:03:59;;;;;;;3.90;1.43;;;9.20;99.90;;;;;;5093545;28;20164;-40
2022/04/08 11:06:35;;;;;;;2.77;1.20;;;9.20;99.90;;;;;;5093444;28;20248;-41
2022/04/08 11:09:09;;;;;;;4.60;2.47;;;9.30;99.90;;;;;;5093345;28;20534;-42
2022/04/08 11:11:37;;;;;;;3.97;1.70;;;9.30;99.90;;;;;;5093501;28;20203;-42
2022/04/08 11:14:04;;;;;;;1.97;1.33;;;9.30;99.90;;;;;;5093504;28;20180;-41
2022/04/08 11:16:38;;;;;;;4.27;1.80;;;9.40;99.90;;;;;;5093142;28;20224;-40
2022/04/08 11:19:09;;;;;;;4.43;1.93;;;9.50;99.90;;;;;;5094431;28;20597;-43
2022/04/08 11:21:35;;;;;;;1.93;1.67;;;9.50;99.90;;;;;;5098118;28;20228;-43
2022/04/08 11:24:06;;;;;;;4.90;1.70;;;9.60;99.90;;;;;;5097351;28;20640;-42
2022/04/08 11:26:49;;;;;;;5.07;2.10;;;9.70;99.90;;;;;;5097191;28;20206;-41
2022/04/08 11:29:22;;;;;;;4.03;1.90;;;9.80;99.90;;;;;;5098043;28;20550;-41
2022/04/08 11:32:04;;;;;;;4.10;1.77;;;9.80;99.90;;;;;;5097335;28;20638;-42
2022/04/08 11:34:30;;;;;;;4.17;1.80;;;9.80;99.90;;;;;;5097540;28;20164;-42
2022/04/08 11:36:57;;;;;;;4.80;1.67;;;9.90;99.90;;;;;;5097447;28;20280;-39
2022/04/08 11:39:23;;;;;;;5.53;1.80;;;9.90;99.90;;;;;;5097090;28;20215;-41
2022/04/08 11:41:54;;;;;;;2.93;1.40;;;9.90;99.90;;;;;;5097188;28;20227;-44
2022/04/08 11:44:20;;;;;;;4.77;1.90;;;9.80;99.90;;;;;;5078713;28;20187;-42
2022/04/08 11:46:46;;;;;;;2.60;1.53;;;9.80;99.90;;;;;;5096769;28;20276;-40
2022/04/08 11:49:12;;;;;;;5.97;1.83;;;9.80;99.90;;;;;;5097677;28;20213;-46
2022/04/08 11:51:38;;;;;;;4.23;1.43;;;9.80;99.90;;;;;;5097722;28;20638;-45
2022/04/08 11:54:04;;;;;;;4.93;1.50;;;9.80;99.90;;;;;;5097461;28;20212;-46
2022/04/08 11:56:30;;;;;;;3.03;1.60;;;9.80;99.90;;;;;;5098445;28;20192;-43
2022/04/08 11:58:59;;;;;;;4.53;1.80;;;9.80;99.90;;;;;;5097656;28;20201;-42
2022/04/08 12:01:32;;;;;;;2.97;1.27;;;9.80;99.90;;;;;;5096595;28;20332;-41
2022/04/08 12:04:04;;;;;;;1.43;1.07;;;9.80;99.90;;;;;;5096943;28;20170;-41
2022/04/08 12:06:49;;;;;;;4.17;1.90;;;9.80;99.90;;;;;;5096718;28;20208;-42
2022/04/08 12:09:17;;;;;;;3.87;1.50;;;9.90;99.90;;;;;;5096498;28;20166;-41
2022/04/08 12:11:45;;;;;;;2.33;1.57;;;9.90;99.90;;;;;;5096413;28;20639;-42
2022/04/08 12:14:11;;;;;;;4.63;1.90;;;9.90;99.90;;;;;;5096355;28;20199;-39
2022/04/08 12:16:38;;;;;;;3.37;1.70;;;10.00;99.90;;;;;;5096445;28;20216;-40
2022/04/08 12:19:04;;;;;;;2.90;1.43;;;10.00;99.90;;;;;;5096343;28;20185;-43
2022/04/08 12:21:31;;;;;;;3.37;1.87;;;9.90;99.90;;;;;;5096522;28;20717;-41
2022/04/08 12:23:59;;;;;;;3.33;1.67;;;9.90;99.90;;;;;;5096157;28;20521;-42
2022/04/08 12:26:29;;;;;;;4.83;2.30;;;10.00;99.90;;;;;;5096083;28;20209;-41
2022/04/08 12:29:17;;;;;;;6.23;2.00;;;10.00;99.90;;;;;;5077980;28;20253;-41
2022/04/08 12:31:50;;;;;;;4.37;1.70;;;9.90;99.90;;;;;;5095767;28;20171;-43
2022/04/08 12:34:17;;;;;;;6.93;2.30;;;9.80;99.90;;;;;;5096562;28;20555;-42
2022/04/08 12:36:44;;;;;;;3.93;2.00;;;9.90;99.90;;;;;;5097322;28;20697;-39
2022/04/08 12:39:11;;;;;;;3.17;1.90;;;9.80;99.90;;;;;;5096577;28;20175;-41
2022/04/08 12:41:59;;;;;;;4.87;2.10;;;9.80;99.90;;;;;;5078271;28;20213;-44
2022/04/08 12:44:25;;;;;;;4.10;2.07;;;9.80;99.90;;;;;;5095876;28;20254;-41
2022/04/08 12:46:51;;;;;;;5.10;1.90;;;9.70;99.90;;;;;;5095668;28;20291;-39
2022/04/08 12:49:17;;;;;;;5.10;2.30;;;9.70;99.90;;;;;;5096044;28;20186;-41
2022/04/08 12:51:42;;;;;;;7.50;2.20;;;9.70;99.90;;;;;;5095644;28;20651;-42
2022/04/08 12:54:08;;;;;;;3.90;2.00;;;9.70;99.90;;;;;;5095711;28;20185;-40
2022/04/08 12:56:34;;;;;;;4.07;1.73;;;9.70;99.90;;;;;;5095822;28;20201;-43
2022/04/08 12:59:01;;;;;;;4.10;1.90;;;9.70;99.90;;;;;;5096440;28;20195;-43